createdAt,value
2023-01-15T00:00:47.338Z,985.32
2023-01-15T00:01:47.336Z,985.32
2023-01-15T00:02:47.410Z,985.27
2023-01-15T00:03:47.368Z,985.28
2023-01-15T00:04:47.292Z,985.32
2023-01-15T00:05:47.278Z,985.34
2023-01-15T00:06:47.264Z,985.40
2023-01-15T00:07:47.271Z,985.35
2023-01-15T00:08:47.243Z,985.37
2023-01-15T00:09:47.256Z,985.38
2023-01-15T00:10:47.227Z,985.40
2023-01-15T00:11:47.204Z,985.39
2023-01-15T00:12:47.207Z,985.36
2023-01-15T00:13:47.223Z,985.34
2023-01-15T00:14:47.166Z,985.37
2023-01-15T00:15:47.172Z,985.38
2023-01-15T00:16:47.143Z,985.40
2023-01-15T00:17:47.129Z,985.39
2023-01-15T00:18:47.109Z,985.32
2023-01-15T00:19:47.098Z,985.41
2023-01-15T00:20:47.068Z,985.41
2023-01-15T00:21:47.060Z,985.44
2023-01-15T00:22:47.069Z,985.47
2023-01-15T00:23:47.039Z,985.42
2023-01-15T00:24:47.039Z,985.48
2023-01-15T00:25:47.018Z,985.49
2023-01-15T00:26:47.008Z,985.47
2023-01-15T00:27:47.010Z,985.53
2023-01-15T00:28:46.975Z,985.50
2023-01-15T00:29:47.002Z,985.48
2023-01-15T00:30:46.941Z,985.48
2023-01-15T00:31:46.961Z,985.49
2023-01-15T00:32:46.969Z,985.50
2023-01-15T00:33:46.959Z,985.53
2023-01-15T00:34:46.899Z,985.54
2023-01-15T00:35:46.878Z,985.54
2023-01-15T00:36:46.858Z,985.56
2023-01-15T00:37:46.871Z,985.55
2023-01-15T00:38:46.838Z,985.54
2023-01-15T00:39:46.841Z,985.51
2023-01-15T00:40:46.807Z,985.55
2023-01-15T00:41:46.800Z,985.60
2023-01-15T00:42:53.890Z,985.62
2023-01-15T00:43:47.782Z,985.70
2023-01-15T00:44:46.790Z,985.83
2023-01-15T00:45:46.749Z,985.88
2023-01-15T00:46:46.855Z,985.97
2023-01-15T00:47:46.739Z,985.90
2023-01-15T00:48:46.710Z,985.99
2023-01-15T00:49:46.688Z,986.06
2023-01-15T00:50:46.678Z,986.00
2023-01-15T00:51:46.668Z,986.06
2023-01-15T00:52:46.694Z,986.09
2023-01-15T00:53:46.650Z,986.11
2023-01-15T00:54:46.633Z,986.17
2023-01-15T00:55:46.628Z,986.16
2023-01-15T00:56:46.600Z,986.16
2023-01-15T00:57:46.599Z,986.22
2023-01-15T00:58:46.601Z,986.16
2023-01-15T00:59:46.595Z,986.18
2023-01-15T01:00:46.595Z,986.10
2023-01-15T01:01:46.644Z,986.09
2023-01-15T01:02:46.534Z,986.00
2023-01-15T01:03:46.541Z,986.21
2023-01-15T01:04:46.568Z,986.08
2023-01-15T01:05:46.529Z,986.06
2023-01-15T01:06:46.474Z,986.06
2023-01-15T01:07:46.459Z,986.09
2023-01-15T01:08:46.467Z,986.11
2023-01-15T01:09:46.465Z,986.16
2023-01-15T01:10:46.419Z,986.18
2023-01-15T01:11:46.433Z,986.24
2023-01-15T01:12:46.390Z,986.18
2023-01-15T01:13:46.406Z,986.23
2023-01-15T01:14:46.357Z,986.26
2023-01-15T01:15:46.348Z,986.27
2023-01-15T01:16:46.355Z,986.23
2023-01-15T01:17:46.327Z,986.26
2023-01-15T01:18:46.328Z,986.31
2023-01-15T01:19:46.293Z,986.31
2023-01-15T01:20:46.279Z,986.35
2023-01-15T01:21:46.277Z,986.36
2023-01-15T01:22:46.248Z,986.39
2023-01-15T01:23:46.289Z,986.40
2023-01-15T01:24:46.241Z,986.37
2023-01-15T01:25:46.210Z,986.38
2023-01-15T01:26:46.207Z,986.38
2023-01-15T01:27:46.199Z,986.41
2023-01-15T01:28:46.189Z,986.42
2023-01-15T01:29:46.167Z,986.48
2023-01-15T01:30:46.161Z,986.47
2023-01-15T01:31:46.189Z,986.46
2023-01-15T01:32:46.119Z,986.49
2023-01-15T01:33:46.128Z,986.49
2023-01-15T01:34:46.100Z,986.53
2023-01-15T01:35:46.098Z,986.59
2023-01-15T01:36:46.066Z,986.64
2023-01-15T01:37:46.071Z,986.64
2023-01-15T01:38:46.072Z,986.69
2023-01-15T01:39:46.038Z,986.67
2023-01-15T01:40:46.009Z,986.79
2023-01-15T01:41:45.999Z,986.84
2023-01-15T01:42:45.978Z,986.74
2023-01-15T01:43:45.989Z,986.87
2023-01-15T01:44:45.976Z,986.88
2023-01-15T01:45:45.994Z,986.90
2023-01-15T01:46:45.938Z,986.89
2023-01-15T01:47:45.921Z,986.88
2023-01-15T01:48:45.922Z,986.90
2023-01-15T01:49:45.888Z,986.93
2023-01-15T01:50:45.869Z,986.90
2023-01-15T01:51:45.882Z,987.01
2023-01-15T01:52:45.874Z,987.02
2023-01-15T01:53:45.859Z,987.00
2023-01-15T01:54:45.829Z,986.95
2023-01-15T01:55:45.807Z,987.07
2023-01-15T01:56:45.805Z,987.03
2023-01-15T01:57:45.784Z,987.08
2023-01-15T01:58:45.790Z,987.13
2023-01-15T01:59:45.760Z,987.10
2023-01-15T02:00:45.805Z,987.14
2023-01-15T02:01:45.816Z,987.14
2023-01-15T02:02:45.762Z,987.15
2023-01-15T02:03:45.730Z,987.19
2023-01-15T02:04:45.698Z,987.14
2023-01-15T02:05:45.679Z,987.16
2023-01-15T02:06:45.658Z,987.13
2023-01-15T02:07:45.650Z,987.16
2023-01-15T02:08:45.647Z,987.22
2023-01-15T02:09:45.640Z,987.23
2023-01-15T02:10:45.607Z,987.34
2023-01-15T02:11:45.624Z,987.33
2023-01-15T02:12:45.580Z,987.28
2023-01-15T02:13:45.589Z,987.27
2023-01-15T02:14:45.568Z,987.22
2023-01-15T02:15:45.540Z,987.32
2023-01-15T02:16:45.601Z,987.30
2023-01-15T02:17:45.527Z,987.28
2023-01-15T02:18:45.497Z,987.33
2023-01-15T02:19:45.510Z,987.26
2023-01-15T02:20:45.469Z,987.28
2023-01-15T02:21:45.469Z,987.20
2023-01-15T02:22:45.449Z,987.25
2023-01-15T02:23:45.439Z,987.20
2023-01-15T02:24:45.451Z,987.25
2023-01-15T02:25:45.408Z,987.22
2023-01-15T02:26:45.398Z,987.22
2023-01-15T02:27:45.388Z,987.28
2023-01-15T02:28:45.383Z,987.20
2023-01-15T02:29:45.374Z,987.22
2023-01-15T02:30:45.350Z,987.25
2023-01-15T02:31:45.362Z,987.27
2023-01-15T02:32:45.327Z,987.26
2023-01-15T02:33:45.298Z,987.23
2023-01-15T02:34:45.306Z,987.34
2023-01-15T02:35:45.289Z,987.30
2023-01-15T02:36:45.258Z,987.32
2023-01-15T02:37:45.249Z,987.30
2023-01-15T02:38:45.239Z,987.36
2023-01-15T02:39:45.238Z,987.35
2023-01-15T02:40:45.209Z,987.35
2023-01-15T02:41:45.197Z,987.36
2023-01-15T02:42:45.189Z,987.30
2023-01-15T02:43:45.169Z,987.32
2023-01-15T02:44:45.199Z,987.32
2023-01-15T02:45:45.151Z,987.23
2023-01-15T02:46:45.132Z,987.25
2023-01-15T02:47:45.116Z,987.27
2023-01-15T02:48:45.109Z,987.31
2023-01-15T02:49:45.122Z,987.32
2023-01-15T02:50:45.079Z,987.37
2023-01-15T02:51:45.074Z,987.34
2023-01-15T02:52:45.059Z,987.36
2023-01-15T02:53:45.039Z,987.40
2023-01-15T02:54:45.052Z,987.35
2023-01-15T02:55:45.020Z,987.34
2023-01-15T02:56:45.007Z,987.35
2023-01-15T02:57:44.997Z,987.38
2023-01-15T02:58:44.998Z,987.32
2023-01-15T02:59:44.979Z,987.33
2023-01-15T03:00:45.005Z,987.38
2023-01-15T03:01:45.077Z,987.39
2023-01-15T03:02:44.987Z,987.36
2023-01-15T03:03:44.913Z,987.34
2023-01-15T03:04:44.917Z,987.31
2023-01-15T03:05:44.889Z,987.29
2023-01-15T03:06:44.865Z,987.31
2023-01-15T03:07:44.857Z,987.30
2023-01-15T03:08:44.859Z,987.35
2023-01-15T03:09:44.847Z,987.39
2023-01-15T03:10:44.819Z,987.41
2023-01-15T03:11:44.814Z,987.44
2023-01-15T03:12:44.797Z,987.47
2023-01-15T03:13:44.783Z,987.49
2023-01-15T03:14:44.798Z,987.41
2023-01-15T03:15:44.756Z,987.41
2023-01-15T03:16:44.800Z,987.45
2023-01-15T03:17:44.728Z,987.44
2023-01-15T03:18:44.723Z,987.48
2023-01-15T03:19:44.770Z,987.51
2023-01-15T03:20:44.707Z,987.53
2023-01-15T03:21:44.687Z,987.44
2023-01-15T03:22:44.656Z,987.38
2023-01-15T03:23:44.656Z,987.27
2023-01-15T03:24:44.639Z,987.32
2023-01-15T03:25:44.649Z,987.34
2023-01-15T03:26:44.617Z,987.30
2023-01-15T03:27:44.616Z,987.29
2023-01-15T03:28:44.609Z,987.30
2023-01-15T03:29:44.583Z,987.33
2023-01-15T03:30:44.663Z,987.44
2023-01-15T03:31:44.550Z,987.46
2023-01-15T03:32:44.537Z,987.41
2023-01-15T03:33:44.514Z,987.35
2023-01-15T03:34:44.506Z,987.36
2023-01-15T03:35:44.528Z,987.36
2023-01-15T03:36:44.489Z,987.34
2023-01-15T03:37:44.476Z,987.42
2023-01-15T03:38:44.457Z,987.35
2023-01-15T03:39:44.457Z,987.44
2023-01-15T03:40:44.448Z,987.49
2023-01-15T03:41:44.455Z,987.53
2023-01-15T03:42:44.423Z,987.46
2023-01-15T03:43:44.399Z,987.47
2023-01-15T03:44:44.385Z,987.48
2023-01-15T03:45:44.413Z,987.45
2023-01-15T03:46:44.358Z,987.49
2023-01-15T03:47:44.344Z,987.48
2023-01-15T03:48:44.326Z,987.48
2023-01-15T03:49:44.322Z,987.44
2023-01-15T03:50:44.315Z,987.48
2023-01-15T03:51:44.287Z,987.57
2023-01-15T03:52:44.283Z,987.50
2023-01-15T03:53:44.318Z,987.57
2023-01-15T03:54:44.246Z,987.59
2023-01-15T03:55:44.271Z,987.55
2023-01-15T03:56:44.227Z,987.58
2023-01-15T03:57:44.217Z,987.54
2023-01-15T03:58:44.205Z,987.52
2023-01-15T03:59:44.187Z,987.54
2023-01-15T04:00:44.209Z,987.55
2023-01-15T04:01:44.284Z,987.54
2023-01-15T04:02:44.154Z,987.61
2023-01-15T04:03:44.153Z,987.66
2023-01-15T04:04:44.117Z,987.61
2023-01-15T04:05:44.108Z,987.61
2023-01-15T04:06:44.115Z,987.64
2023-01-15T04:07:44.093Z,987.64
2023-01-15T04:08:44.086Z,987.68
2023-01-15T04:09:44.055Z,987.63
2023-01-15T04:10:44.049Z,987.68
2023-01-15T04:11:44.049Z,987.65
2023-01-15T04:12:44.020Z,987.61
2023-01-15T04:13:44.029Z,987.62
2023-01-15T04:14:43.986Z,987.64
2023-01-15T04:15:44.050Z,987.59
2023-01-15T04:16:44.005Z,987.54
2023-01-15T04:17:43.968Z,987.51
2023-01-15T04:19:39.659Z,987.60
2023-01-15T04:20:39.667Z,987.70
2023-01-15T04:21:39.665Z,987.69
2023-01-15T04:22:39.785Z,987.70
2023-01-15T04:23:39.601Z,987.71
2023-01-15T04:24:39.609Z,987.74
2023-01-15T04:25:39.588Z,987.70
2023-01-15T04:26:39.579Z,987.72
2023-01-15T04:27:39.573Z,987.71
2023-01-15T04:28:39.564Z,987.76
2023-01-15T04:29:39.539Z,987.73
2023-01-15T04:30:39.618Z,987.72
2023-01-15T04:31:39.522Z,987.70
2023-01-15T04:32:39.481Z,987.76
2023-01-15T04:33:39.510Z,987.78
2023-01-15T04:34:39.459Z,987.82
2023-01-15T04:35:39.449Z,987.83
2023-01-15T04:36:39.455Z,987.83
2023-01-15T04:37:39.450Z,987.79
2023-01-15T04:38:39.454Z,987.80
2023-01-15T04:39:39.412Z,987.77
2023-01-15T04:40:39.389Z,987.78
2023-01-15T04:41:39.380Z,987.84
2023-01-15T04:42:39.371Z,987.81
2023-01-15T04:43:39.380Z,987.79
2023-01-15T04:44:39.337Z,987.80
2023-01-15T04:45:39.339Z,987.83
2023-01-15T04:46:39.364Z,987.81
2023-01-15T04:47:39.307Z,987.86
2023-01-15T04:48:39.310Z,987.92
2023-01-15T04:49:39.294Z,987.95
2023-01-15T04:50:40.478Z,987.88
2023-01-15T04:51:39.252Z,987.86
2023-01-15T04:52:39.235Z,987.87
2023-01-15T04:53:39.233Z,987.92
2023-01-15T04:54:39.306Z,987.94
2023-01-15T04:55:39.244Z,987.95
2023-01-15T04:56:39.184Z,987.87
2023-01-15T04:57:39.165Z,987.88
2023-01-15T04:58:39.188Z,987.93
2023-01-15T04:59:39.148Z,987.89
2023-01-15T05:00:39.128Z,987.96
2023-01-15T05:01:39.231Z,987.98
2023-01-15T05:02:39.177Z,987.96
2023-01-15T05:03:39.121Z,987.97
2023-01-15T05:04:39.124Z,987.98
2023-01-15T05:05:39.057Z,987.98
2023-01-15T05:06:39.064Z,988.00
2023-01-15T05:07:39.041Z,987.97
2023-01-15T05:08:39.039Z,987.96
2023-01-15T05:09:39.015Z,987.96
2023-01-15T05:10:38.998Z,987.93
2023-01-15T05:11:38.986Z,987.97
2023-01-15T05:12:38.975Z,987.95
2023-01-15T05:13:39.007Z,987.99
2023-01-15T05:14:38.937Z,988.01
2023-01-15T05:15:38.953Z,988.02
2023-01-15T05:16:38.927Z,988.05
2023-01-15T05:17:38.916Z,988.08
2023-01-15T05:18:38.921Z,988.05
2023-01-15T05:19:38.889Z,988.03
2023-01-15T05:20:38.875Z,988.01
2023-01-15T05:21:38.868Z,988.02
2023-01-15T05:22:38.852Z,988.00
2023-01-15T05:23:38.861Z,988.02
2023-01-15T05:24:38.829Z,988.04
2023-01-15T05:25:38.848Z,988.07
2023-01-15T05:26:38.828Z,988.08
2023-01-15T05:27:38.788Z,988.10
2023-01-15T05:28:38.795Z,988.08
2023-01-15T05:29:38.769Z,988.04
2023-01-15T05:30:38.769Z,988.04
2023-01-15T05:31:38.737Z,988.07
2023-01-15T05:32:38.724Z,988.06
2023-01-15T05:33:38.786Z,988.10
2023-01-15T05:34:38.698Z,988.08
2023-01-15T05:35:38.703Z,988.06
2023-01-15T05:36:38.686Z,988.05
2023-01-15T05:37:38.665Z,988.07
2023-01-15T05:38:38.648Z,988.06
2023-01-15T05:39:38.676Z,988.08
2023-01-15T05:40:38.627Z,988.05
2023-01-15T05:41:38.608Z,988.00
2023-01-15T05:42:38.618Z,987.99
2023-01-15T05:43:38.587Z,987.96
2023-01-15T05:44:38.575Z,987.96
2023-01-15T05:45:38.557Z,987.99
2023-01-15T05:46:38.578Z,987.97
2023-01-15T05:47:38.527Z,988.00
2023-01-15T05:48:38.580Z,988.03
2023-01-15T05:49:38.529Z,988.00
2023-01-15T05:50:38.487Z,988.05
2023-01-15T05:51:38.478Z,988.04
2023-01-15T05:52:38.467Z,988.07
2023-01-15T05:53:38.458Z,988.03
2023-01-15T05:54:38.589Z,988.01
2023-01-15T05:55:38.432Z,988.03
2023-01-15T05:56:38.425Z,988.06
2023-01-15T05:57:38.407Z,988.11
2023-01-15T05:58:38.386Z,988.09
2023-01-15T05:59:38.398Z,988.13
2023-01-15T06:00:38.363Z,988.11
2023-01-15T06:01:38.347Z,988.13
2023-01-15T06:02:38.427Z,988.12
2023-01-15T06:03:38.414Z,988.13
2023-01-15T06:04:38.326Z,988.07
2023-01-15T06:05:38.297Z,988.12
2023-01-15T06:06:38.338Z,988.13
2023-01-15T06:07:38.298Z,988.13
2023-01-15T06:08:38.255Z,988.15
2023-01-15T06:09:38.273Z,988.20
2023-01-15T06:10:38.238Z,988.24
2023-01-15T06:11:38.235Z,988.21
2023-01-15T06:12:38.208Z,988.23
2023-01-15T06:13:38.196Z,988.23
2023-01-15T06:14:38.194Z,988.18
2023-01-15T06:15:38.214Z,988.21
2023-01-15T06:16:40.861Z,988.16
2023-01-15T06:17:38.147Z,988.14
2023-01-15T06:18:38.127Z,988.17
2023-01-15T06:19:38.295Z,988.16
2023-01-15T06:20:38.109Z,988.16
2023-01-15T06:21:38.105Z,988.20
2023-01-15T06:22:38.078Z,988.17
2023-01-15T06:23:38.079Z,988.18
2023-01-15T06:24:38.070Z,988.20
2023-01-15T06:25:38.052Z,988.27
2023-01-15T06:26:38.036Z,988.26
2023-01-15T06:27:38.027Z,988.26
2023-01-15T06:28:38.016Z,988.28
2023-01-15T06:29:38.007Z,988.28
2023-01-15T06:30:39.396Z,988.25
2023-01-15T06:31:38.054Z,988.28
2023-01-15T06:32:37.951Z,988.27
2023-01-15T06:33:37.948Z,988.31
2023-01-15T06:34:37.934Z,988.33
2023-01-15T06:35:37.916Z,988.35
2023-01-15T06:36:37.897Z,988.42
2023-01-15T06:37:37.886Z,988.46
2023-01-15T06:38:37.888Z,988.39
2023-01-15T06:39:37.890Z,988.44
2023-01-15T06:40:37.844Z,988.44
2023-01-15T06:41:37.862Z,988.39
2023-01-15T06:42:37.823Z,988.41
2023-01-15T06:43:37.816Z,988.52
2023-01-15T06:44:37.820Z,988.50
2023-01-15T06:45:37.786Z,988.54
2023-01-15T06:46:37.814Z,988.50
2023-01-15T06:47:37.758Z,988.54
2023-01-15T06:48:37.749Z,988.55
2023-01-15T06:49:37.772Z,988.56
2023-01-15T06:50:37.716Z,988.55
2023-01-15T06:51:37.711Z,988.52
2023-01-15T06:52:37.687Z,988.49
2023-01-15T06:53:37.680Z,988.40
2023-01-15T06:54:37.677Z,988.38
2023-01-15T06:55:37.689Z,988.42
2023-01-15T06:56:37.672Z,988.38
2023-01-15T06:57:37.631Z,988.39
2023-01-15T06:58:37.624Z,988.31
2023-01-15T06:59:37.607Z,988.29
2023-01-15T07:00:37.654Z,988.31
2023-01-15T07:01:37.615Z,988.29
2023-01-15T07:02:37.567Z,988.27
2023-01-15T07:03:37.604Z,988.30
2023-01-15T07:04:37.539Z,988.32
2023-01-15T07:05:37.551Z,988.38
2023-01-15T07:06:37.522Z,988.39
2023-01-15T07:07:37.511Z,988.46
2023-01-15T07:08:37.485Z,988.45
2023-01-15T07:09:37.502Z,988.48
2023-01-15T07:10:37.477Z,988.50
2023-01-15T07:11:37.447Z,988.48
2023-01-15T07:12:37.436Z,988.50
2023-01-15T07:13:37.448Z,988.48
2023-01-15T07:14:37.419Z,988.53
2023-01-15T07:15:37.496Z,988.56
2023-01-15T07:16:37.496Z,988.49
2023-01-15T07:17:37.376Z,988.50
2023-01-15T07:18:37.396Z,988.53
2023-01-15T07:19:37.474Z,988.61
2023-01-15T07:20:37.357Z,988.59
2023-01-15T07:21:37.342Z,988.61
2023-01-15T07:22:37.375Z,988.57
2023-01-15T07:23:37.300Z,988.57
2023-01-15T07:24:37.278Z,988.60
2023-01-15T07:25:37.296Z,988.65
2023-01-15T07:26:37.267Z,988.67
2023-01-15T07:27:37.288Z,988.67
2023-01-15T07:28:37.260Z,988.62
2023-01-15T07:29:37.235Z,988.64
2023-01-15T07:30:37.266Z,988.69
2023-01-15T07:31:37.428Z,988.68
2023-01-15T07:32:37.194Z,988.67
2023-01-15T07:33:37.216Z,988.68
2023-01-15T07:34:37.246Z,988.75
2023-01-15T07:35:37.195Z,988.74
2023-01-15T07:36:37.202Z,988.72
2023-01-15T07:37:37.176Z,988.70
2023-01-15T07:38:37.132Z,988.66
2023-01-15T07:39:37.124Z,988.68
2023-01-15T07:40:37.190Z,988.69
2023-01-15T07:41:37.193Z,988.70
2023-01-15T07:42:37.215Z,988.77
2023-01-15T07:43:37.083Z,988.73
2023-01-15T07:44:37.073Z,988.76
2023-01-15T07:45:37.155Z,988.74
2023-01-15T07:46:37.027Z,988.76
2023-01-15T07:47:37.103Z,988.75
2023-01-15T07:48:37.000Z,988.75
2023-01-15T07:49:36.987Z,988.78
2023-01-15T07:50:36.990Z,988.82
2023-01-15T07:51:36.979Z,988.80
2023-01-15T07:52:36.952Z,988.81
2023-01-15T07:53:36.915Z,988.83
2023-01-15T07:54:36.904Z,988.89
2023-01-15T07:55:36.887Z,988.94
2023-01-15T07:56:36.916Z,988.89
2023-01-15T07:57:36.893Z,988.90
2023-01-15T07:58:36.908Z,988.85
2023-01-15T07:59:36.846Z,988.89
2023-01-15T08:00:36.819Z,988.91
2023-01-15T08:01:36.927Z,988.93
2023-01-15T08:02:36.799Z,988.96
2023-01-15T08:03:36.794Z,989.01
2023-01-15T08:04:36.772Z,988.98
2023-01-15T08:05:36.773Z,989.00
2023-01-15T08:06:36.758Z,989.00
2023-01-15T08:07:36.727Z,988.99
2023-01-15T08:08:36.715Z,988.98
2023-01-15T08:09:36.706Z,988.98
2023-01-15T08:10:36.689Z,988.99
2023-01-15T08:11:36.695Z,988.95
2023-01-15T08:12:36.666Z,988.91
2023-01-15T08:13:36.745Z,988.92
2023-01-15T08:14:36.636Z,989.01
2023-01-15T08:15:36.635Z,989.04
2023-01-15T08:16:36.668Z,989.03
2023-01-15T08:17:36.603Z,989.02
2023-01-15T08:18:36.643Z,989.01
2023-01-15T08:19:36.572Z,988.98
2023-01-15T08:20:36.558Z,989.02
2023-01-15T08:21:36.584Z,989.07
2023-01-15T08:22:36.534Z,989.06
2023-01-15T08:23:36.514Z,989.12
2023-01-15T08:24:36.527Z,989.07
2023-01-15T08:25:36.494Z,989.04
2023-01-15T08:26:36.496Z,989.08
2023-01-15T08:27:36.483Z,989.13
2023-01-15T08:28:36.457Z,989.15
2023-01-15T08:29:36.438Z,989.17
2023-01-15T08:30:36.442Z,989.26
2023-01-15T08:31:36.470Z,989.26
2023-01-15T08:32:36.453Z,989.20
2023-01-15T08:33:36.384Z,989.24
2023-01-15T08:34:36.388Z,989.25
2023-01-15T08:35:36.368Z,989.29
2023-01-15T08:36:36.357Z,989.28
2023-01-15T08:37:36.362Z,989.30
2023-01-15T08:38:36.325Z,989.32
2023-01-15T08:39:36.316Z,989.27
2023-01-15T08:40:36.354Z,989.28
2023-01-15T08:41:36.292Z,989.29
2023-01-15T08:42:36.318Z,989.30
2023-01-15T08:43:36.285Z,989.28
2023-01-15T08:44:36.253Z,989.25
2023-01-15T08:45:36.312Z,989.18
2023-01-15T08:46:36.253Z,989.22
2023-01-15T08:47:36.235Z,989.23
2023-01-15T08:48:36.227Z,989.25
2023-01-15T08:49:36.185Z,989.25
2023-01-15T08:50:36.185Z,989.25
2023-01-15T08:51:36.159Z,989.22
2023-01-15T08:52:36.163Z,989.20
2023-01-15T08:53:36.138Z,989.23
2023-01-15T08:54:36.129Z,989.24
2023-01-15T08:55:36.105Z,989.24
2023-01-15T08:56:36.115Z,989.31
2023-01-15T08:57:36.105Z,989.26
2023-01-15T08:58:36.064Z,989.24
2023-01-15T08:59:36.056Z,989.22
2023-01-15T09:00:36.056Z,989.27
2023-01-15T09:01:36.195Z,989.32
2023-01-15T09:02:36.037Z,989.35
2023-01-15T09:03:36.027Z,989.30
2023-01-15T09:04:36.010Z,989.34
2023-01-15T09:05:35.979Z,989.27
2023-01-15T09:06:35.974Z,989.29
2023-01-15T09:07:36.031Z,989.24
2023-01-15T09:08:35.955Z,989.27
2023-01-15T09:09:35.935Z,989.34
2023-01-15T09:10:35.915Z,989.25
2023-01-15T09:11:35.903Z,989.16
2023-01-15T09:12:35.896Z,989.12
2023-01-15T09:13:35.923Z,989.11
2023-01-15T09:14:58.947Z,989.15
2023-01-15T09:15:36.870Z,989.10
2023-01-15T09:16:35.871Z,989.18
2023-01-15T09:17:35.838Z,989.19
2023-01-15T09:18:35.848Z,989.24
2023-01-15T09:19:35.805Z,989.19
2023-01-15T09:20:35.800Z,989.18
2023-01-15T09:21:35.775Z,989.23
2023-01-15T09:22:35.765Z,989.29
2023-01-15T09:23:35.782Z,989.25
2023-01-15T09:24:35.774Z,989.31
2023-01-15T09:25:35.724Z,989.30
2023-01-15T09:26:35.714Z,989.32
2023-01-15T09:27:35.697Z,989.35
2023-01-15T09:28:35.705Z,989.29
2023-01-15T09:29:35.675Z,989.32
2023-01-15T09:30:35.695Z,989.35
2023-01-15T09:31:35.649Z,989.33
2023-01-15T09:32:35.645Z,989.37
2023-01-15T09:33:35.634Z,989.40
2023-01-15T09:34:35.615Z,989.36
2023-01-15T09:35:35.591Z,989.38
2023-01-15T09:36:35.584Z,989.36
2023-01-15T09:37:35.564Z,989.40
2023-01-15T09:38:35.542Z,989.44
2023-01-15T09:39:35.552Z,989.42
2023-01-15T09:40:35.535Z,989.46
2023-01-15T09:41:35.510Z,989.48
2023-01-15T09:42:35.495Z,989.43
2023-01-15T09:43:38.832Z,989.50
2023-01-15T09:44:36.488Z,989.50
2023-01-15T09:45:35.456Z,989.50
2023-01-15T09:46:35.443Z,989.54
2023-01-15T09:47:35.432Z,989.52
2023-01-15T09:48:35.436Z,989.54
2023-01-15T09:49:35.473Z,989.55
2023-01-15T09:50:35.405Z,989.57
2023-01-15T09:51:35.395Z,989.50
2023-01-15T09:52:35.383Z,989.58
2023-01-15T09:53:35.366Z,989.46
2023-01-15T09:54:35.364Z,989.55
2023-01-15T09:55:35.332Z,989.56
2023-01-15T09:56:35.351Z,989.54
2023-01-15T09:57:35.315Z,989.55
2023-01-15T09:58:35.363Z,989.56
2023-01-15T09:59:35.294Z,989.58
2023-01-15T10:00:35.262Z,989.57
2023-01-15T10:01:35.316Z,989.57
2023-01-15T10:02:35.243Z,989.56
2023-01-15T10:03:35.309Z,989.63
2023-01-15T10:04:35.345Z,989.66
2023-01-15T10:05:35.207Z,989.68
2023-01-15T10:06:35.198Z,989.66
2023-01-15T10:07:35.172Z,989.71
2023-01-15T10:08:35.170Z,989.69
2023-01-15T10:09:35.175Z,989.76
2023-01-15T10:10:35.133Z,989.69
2023-01-15T10:11:35.123Z,989.74
2023-01-15T10:12:35.114Z,989.71
2023-01-15T10:13:35.092Z,989.76
2023-01-15T10:14:35.130Z,989.68
2023-01-15T10:15:35.096Z,989.73
2023-01-15T10:16:35.090Z,989.76
2023-01-15T10:17:35.045Z,989.71
2023-01-15T10:18:35.045Z,989.67
2023-01-15T10:19:44.451Z,989.65
2023-01-15T10:20:36.011Z,989.66
2023-01-15T10:21:35.006Z,989.71
2023-01-15T10:22:34.986Z,989.62
2023-01-15T10:23:34.987Z,989.60
2023-01-15T10:24:35.000Z,989.68
2023-01-15T10:25:34.963Z,989.61
2023-01-15T10:26:34.943Z,989.70
2023-01-15T10:27:34.942Z,989.68
2023-01-15T10:28:34.903Z,989.75
2023-01-15T10:29:34.893Z,989.69
2023-01-15T10:30:34.903Z,989.71
2023-01-15T10:31:34.873Z,989.72
2023-01-15T10:32:34.853Z,989.79
2023-01-15T10:33:34.835Z,989.84
2023-01-15T10:34:34.836Z,989.86
2023-01-15T10:35:34.851Z,989.86
2023-01-15T10:36:34.803Z,989.86
2023-01-15T10:37:34.804Z,989.87
2023-01-15T10:38:34.787Z,989.89
2023-01-15T10:39:34.771Z,989.88
2023-01-15T10:40:34.770Z,989.88
2023-01-15T10:41:34.742Z,989.88
2023-01-15T10:42:34.724Z,989.91
2023-01-15T10:43:34.706Z,989.85
2023-01-15T10:44:34.744Z,989.85
2023-01-15T10:45:34.723Z,989.87
2023-01-15T10:46:34.731Z,989.85
2023-01-15T10:47:34.661Z,989.83
2023-01-15T10:48:34.656Z,989.83
2023-01-15T10:49:34.634Z,989.84
2023-01-15T10:50:34.640Z,989.83
2023-01-15T10:51:34.602Z,989.85
2023-01-15T10:52:34.603Z,989.91
2023-01-15T10:53:34.602Z,989.94
2023-01-15T10:54:34.570Z,989.93
2023-01-15T10:55:34.572Z,989.96
2023-01-15T10:56:34.552Z,989.92
2023-01-15T10:57:34.523Z,989.91
2023-01-15T10:58:34.514Z,989.93
2023-01-15T10:59:34.503Z,990.00
2023-01-15T11:00:34.502Z,990.01
2023-01-15T11:01:34.537Z,990.02
2023-01-15T11:02:34.640Z,990.00
2023-01-15T11:03:34.461Z,989.99
2023-01-15T11:04:34.442Z,990.05
2023-01-15T11:05:34.444Z,990.01
2023-01-15T11:06:34.428Z,989.98
2023-01-15T11:07:34.430Z,990.06
2023-01-15T11:09:07.369Z,990.01
2023-01-15T11:09:35.382Z,990.07
2023-01-15T11:10:34.363Z,989.99
2023-01-15T11:11:34.364Z,990.00
2023-01-15T11:12:34.344Z,990.12
2023-01-15T11:13:34.313Z,990.10
2023-01-15T11:14:34.321Z,990.13
2023-01-15T11:15:34.374Z,990.08
2023-01-15T11:16:34.311Z,990.17
2023-01-15T11:17:34.275Z,990.24
2023-01-15T11:18:34.262Z,990.22
2023-01-15T11:19:34.236Z,990.14
2023-01-15T11:20:34.231Z,990.13
2023-01-15T11:21:34.243Z,990.18
2023-01-15T11:22:34.222Z,990.15
2023-01-15T11:23:34.402Z,990.12
2023-01-15T11:24:34.242Z,990.19
2023-01-15T11:25:34.203Z,990.22
2023-01-15T11:26:34.170Z,990.21
2023-01-15T11:27:34.139Z,990.27
2023-01-15T11:28:34.138Z,990.32
2023-01-15T11:29:34.142Z,990.20
2023-01-15T11:30:34.119Z,990.27
2023-01-15T11:31:34.103Z,990.32
2023-01-15T11:32:34.082Z,990.33
2023-01-15T11:33:34.064Z,990.21
2023-01-15T11:34:34.051Z,990.20
2023-01-15T11:35:34.060Z,990.17
2023-01-15T11:36:34.042Z,990.16
2023-01-15T11:37:34.021Z,990.17
2023-01-15T11:38:34.011Z,990.08
2023-01-15T11:39:33.973Z,990.04
2023-01-15T11:40:33.977Z,990.01
2023-01-15T11:41:34.005Z,990.00
2023-01-15T11:42:33.962Z,990.01
2023-01-15T11:43:34.784Z,989.95
2023-01-15T11:44:33.926Z,989.93
2023-01-15T11:45:33.907Z,989.93
2023-01-15T11:46:34.014Z,989.88
2023-01-15T11:47:33.881Z,989.86
2023-01-15T11:48:33.872Z,989.80
2023-01-15T11:49:33.952Z,989.70
2023-01-15T11:50:33.832Z,989.65
2023-01-15T11:51:33.839Z,989.77
2023-01-15T11:52:33.802Z,989.88
2023-01-15T11:53:33.832Z,989.78
2023-01-15T11:54:33.791Z,989.78
2023-01-15T11:55:33.772Z,989.76
2023-01-15T11:56:33.825Z,989.73
2023-01-15T11:57:33.819Z,989.77
2023-01-15T11:58:33.736Z,989.76
2023-01-15T11:59:33.723Z,989.72
2023-01-15T12:00:33.712Z,989.79
2023-01-15T12:01:33.822Z,989.73
2023-01-15T12:02:33.693Z,989.75
2023-01-15T12:03:33.726Z,989.79
2023-01-15T12:04:33.720Z,989.70
2023-01-15T12:05:33.631Z,989.83
2023-01-15T12:06:33.680Z,989.99
2023-01-15T12:07:33.623Z,989.89
2023-01-15T12:08:33.647Z,989.87
2023-01-15T12:09:33.676Z,989.87
2023-01-15T12:10:33.562Z,989.87
2023-01-15T12:11:33.544Z,989.82
2023-01-15T12:12:33.572Z,989.84
2023-01-15T12:13:33.523Z,989.84
2023-01-15T12:14:33.518Z,989.82
2023-01-15T12:15:34.321Z,989.77
2023-01-15T12:16:33.511Z,989.78
2023-01-15T12:17:33.535Z,989.81
2023-01-15T12:18:33.586Z,989.87
2023-01-15T12:19:34.408Z,989.85
2023-01-15T12:20:33.484Z,989.78
2023-01-15T12:21:33.539Z,989.82
2023-01-15T12:22:34.315Z,989.74
2023-01-15T12:23:34.462Z,989.83
2023-01-15T12:24:34.391Z,989.90
2023-01-15T12:25:33.404Z,989.77
2023-01-15T12:26:33.360Z,989.83
2023-01-15T12:27:33.373Z,989.93
2023-01-15T12:28:33.331Z,989.78
2023-01-15T12:29:33.326Z,989.82